Time;durP1;ratioP1;P1;durP2;ratioP2;P2;SDS_P1;SDS_P2;PMS_P1;PMS_P2;Temp;Humidity;BMP_temperature;BMP_pressure;BME280_temperature;BME280_humidity;BME280_pressure;Samples;Min_cycle;Max_cycle;Signal;HPM_P1;HPM_P2
2021/04/29 00:00:53;;;;;;;9.38;8.30;;;;;;;11.48;73.02;97553.13;3540346;40;20110;-65
2021/04/29 00:03:20;;;;;;;10.48;9.02;;;;;;;11.51;73.09;97557.13;3549410;40;20073;-66
2021/04/29 00:05:47;;;;;;;10.02;8.63;;;;;;;11.46;73.10;97557.00;3548512;40;20082;-64
2021/04/29 00:08:15;;;;;;;11.05;9.27;;;;;;;11.50;73.06;97555.53;3549344;40;20046;-65
2021/04/29 00:10:42;;;;;;;12.80;9.90;;;;;;;11.50;73.19;97558.16;3549788;40;20336;-65
2021/04/29 00:13:08;;;;;;;9.95;8.10;;;;;;;11.52;73.22;97561.41;3549776;40;20326;-65
2021/04/29 00:15:35;;;;;;;11.57;9.18;;;;;;;11.59;73.24;97560.28;3549725;40;20061;-66
2021/04/29 00:18:03;;;;;;;11.05;9.55;;;;;;;11.60;73.25;97559.22;3551084;40;20050;-65
2021/04/29 00:20:30;;;;;;;12.43;9.73;;;;;;;11.55;72.90;97556.47;3553421;40;20054;-65
2021/04/29 00:22:57;;;;;;;11.82;9.85;;;;;;;11.51;73.34;97557.97;3550396;40;20054;-65
2021/04/29 00:25:25;;;;;;;11.05;9.07;;;;;;;11.53;73.37;97563.00;3549672;40;20054;-65
2021/04/29 00:27:51;;;;;;;14.93;10.20;;;;;;;11.56;73.33;97565.22;3549096;40;20054;-65
2021/04/29 00:30:19;;;;;;;11.23;9.10;;;;;;;11.55;73.34;97555.63;3549379;40;20048;-64
2021/04/29 00:32:46;;;;;;;11.60;10.00;;;;;;;11.60;73.34;97561.06;3549698;40;20461;-66
2021/04/29 00:35:14;;;;;;;10.63;8.60;;;;;;;11.59;73.16;97559.44;3549473;40;20137;-64
2021/04/29 00:37:41;;;;;;;10.40;8.82;;;;;;;11.56;72.97;97563.38;3539810;40;20069;-64
2021/04/29 00:40:09;;;;;;;11.52;9.38;;;;;;;11.54;73.02;97568.06;3549478;40;20202;-64
2021/04/29 00:42:38;;;;;;;9.32;8.05;;;;;;;11.56;72.79;97568.66;3549373;40;20131;-65
2021/04/29 00:45:07;;;;;;;8.63;7.50;;;;;;;11.55;72.59;97569.69;3540321;40;20058;-65
2021/04/29 00:47:35;;;;;;;9.45;7.63;;;;;;;11.50;72.67;97569.56;3540394;40;20057;-66
2021/04/29 00:50:03;;;;;;;9.98;7.80;;;;;;;11.48;72.70;97571.63;3549273;40;20041;-65
2021/04/29 00:52:29;;;;;;;9.93;7.95;;;;;;;11.42;72.61;97559.31;3549296;40;20400;-64
2021/04/29 00:54:57;;;;;;;8.68;7.30;;;;;;;11.47;72.41;97561.25;3549674;40;20060;-66
2021/04/29 00:57:24;;;;;;;8.77;6.90;;;;;;;11.44;72.67;97567.84;3548889;40;20050;-65
2021/04/29 00:59:53;;;;;;;9.63;7.15;;;;;;;11.36;72.43;97562.88;3540430;40;20288;-64
2021/04/29 01:02:21;;;;;;;10.15;7.45;;;;;;;11.36;72.73;97571.63;3549608;40;20050;-64
2021/04/29 01:04:54;;;;;;;9.07;7.85;;;;;;;11.40;72.88;97566.69;3549308;40;20053;-65
2021/04/29 01:07:22;;;;;;;8.38;7.53;;;;;;;11.34;72.95;97565.72;3549838;40;20046;-66
2021/04/29 01:09:56;;;;;;;10.57;8.15;;;;;;;11.34;72.89;97578.97;3549917;40;20312;-65
2021/04/29 01:12:26;;;;;;;;;;;;;;;11.31;73.07;97566.22;3549987;40;20049;-65
2021/04/29 01:14:58;;;;;;;11.18;8.48;;;;;;;11.30;72.83;97561.94;3550754;40;20046;-65
2021/04/29 01:17:26;;;;;;;9.02;7.80;;;;;;;11.33;72.88;97565.97;3549763;40;20050;-65
2021/04/29 01:20:00;;;;;;;9.07;7.28;;;;;;;11.32;72.93;97565.16;3549874;40;20090;-65
2021/04/29 01:22:27;;;;;;;;;;;;;;;11.37;72.47;97567.94;3550339;40;20058;-65
2021/04/29 01:25:03;;;;;;;9.60;7.68;;;;;;;11.44;72.84;97565.19;3549637;40;19934;-66
2021/04/29 01:27:32;;;;;;;8.50;7.60;;;;;;;11.45;72.73;97558.84;3549773;40;20046;-65
2021/04/29 01:30:00;;;;;;;9.38;8.00;;;;;;;11.44;72.52;97551.97;3550086;40;20050;-64
2021/04/29 01:32:27;;;;;;;8.88;7.13;;;;;;;11.45;72.28;97563.34;3551205;40;20086;-65
2021/04/29 01:34:55;;;;;;;8.77;7.15;;;;;;;11.39;72.37;97573.00;3551264;40;20076;-66
2021/04/29 01:37:23;;;;;;;11.05;8.05;;;;;;;11.26;72.82;97579.28;3550457;40;20058;-66
2021/04/29 01:39:50;;;;;;;9.73;7.88;;;;;;;11.24;72.93;97583.22;3550789;40;20046;-65
2021/04/29 01:42:18;;;;;;;10.32;7.68;;;;;;;11.16;73.29;97597.56;3550773;40;20058;-65
2021/04/29 01:44:46;;;;;;;9.15;7.93;;;;;;;11.07;73.80;97598.91;3542139;40;20061;-65
2021/04/29 01:47:13;;;;;;;8.45;7.57;;;;;;;11.06;73.89;97602.56;3550679;40;20053;-65
2021/04/29 01:49:41;;;;;;;10.18;9.07;;;;;;;11.08;73.87;97611.91;3550746;40;20049;-64
2021/04/29 01:52:09;;;;;;;10.35;8.70;;;;;;;11.08;74.07;97609.25;3550763;40;20046;-65
2021/04/29 01:54:37;;;;;;;9.75;7.93;;;;;;;11.13;74.25;97612.03;3551139;40;20045;-64
2021/04/29 01:57:04;;;;;;;10.60;8.77;;;;;;;11.17;74.14;97609.75;3541425;40;20392;-65
2021/04/29 01:59:31;;;;;;;10.40;8.88;;;;;;;11.21;74.28;97607.47;3550960;40;20097;-65
2021/04/29 02:02:00;;;;;;;10.70;8.60;;;;;;;11.31;74.14;97615.66;3550660;40;20069;-66
2021/04/29 02:04:28;;;;;;;11.45;8.63;;;;;;;11.31;74.14;97608.53;3542451;40;20065;-64
2021/04/29 02:06:56;;;;;;;13.20;9.43;;;;;;;11.33;73.93;97614.41;3550200;40;20087;-66
2021/04/29 02:09:23;;;;;;;11.52;9.88;;;;;;;11.36;73.73;97621.09;3584523;23;20090;-63
2021/04/29 02:11:55;;;;;;;12.48;10.13;;;;;;;11.24;73.70;97618.41;3550659;40;20061;-62
2021/04/29 02:14:34;;;;;;;13.45;10.10;;;;;;;11.14;73.55;97618.97;3551970;40;20070;-61
2021/04/29 02:17:06;;;;;;;12.90;10.40;;;;;;;11.03;74.22;97622.34;3550293;40;20046;-61
2021/04/29 02:19:34;;;;;;;11.65;10.35;;;;;;;10.97;74.30;97625.88;3550012;40;20046;-61
2021/04/29 02:22:02;;;;;;;12.68;10.25;;;;;;;11.02;74.72;97612.81;3549954;40;20094;-61
2021/04/29 02:24:33;;;;;;;11.55;8.93;;;;;;;11.06;74.65;97616.63;3549936;40;20387;-61
2021/04/29 02:27:00;;;;;;;10.68;8.85;;;;;;;11.14;74.76;97621.59;3549649;40;20050;-61
2021/04/29 02:29:28;;;;;;;11.10;8.60;;;;;;;11.20;74.00;97619.88;3549716;40;20042;-62
2021/04/29 02:31:55;;;;;;;9.38;8.40;;;;;;;11.21;73.90;97626.78;3549952;40;20353;-62
2021/04/29 02:34:23;;;;;;;10.70;8.70;;;;;;;11.21;73.93;97620.69;3549851;40;20389;-62
2021/04/29 02:36:50;;;;;;;10.15;8.75;;;;;;;11.24;73.51;97626.34;3550110;40;20054;-61
2021/04/29 02:39:17;;;;;;;9.18;8.27;;;;;;;11.19;73.15;97634.16;3550056;40;20058;-61
2021/04/29 02:41:44;;;;;;;10.10;8.13;;;;;;;11.20;73.25;97627.81;3549703;40;20485;-62
2021/04/29 02:44:11;;;;;;;11.18;9.07;;;;;;;11.16;73.21;97627.47;3541192;40;20034;-61
2021/04/29 02:46:40;;;;;;;10.00;7.82;;;;;;;11.18;73.48;97629.06;3549826;40;20108;-61
2021/04/29 02:49:08;;;;;;;10.88;8.38;;;;;;;11.21;73.28;97629.44;3549945;40;20062;-61
2021/04/29 02:51:38;;;;;;;12.77;8.60;;;;;;;11.18;73.29;97626.41;3549992;40;20046;-61
2021/04/29 02:54:07;;;;;;;9.45;8.23;;;;;;;11.12;73.49;97633.44;3540866;40;20030;-61
2021/04/29 02:56:38;;;;;;;9.80;8.10;;;;;;;11.14;73.16;97637.47;3552463;40;20081;-61
2021/04/29 02:59:05;;;;;;;8.40;7.28;;;;;;;11.16;73.12;97638.03;3557614;40;20046;-62
2021/04/29 03:01:33;;;;;;;8.65;7.75;;;;;;;11.19;73.38;97642.09;3558293;40;20046;-61
2021/04/29 03:04:01;;;;;;;10.18;7.55;;;;;;;11.16;73.16;97653.09;3558916;40;20083;-62
2021/04/29 03:06:28;;;;;;;10.02;7.30;;;;;;;11.09;73.18;97650.53;3558457;40;20054;-61
2021/04/29 03:08:56;;;;;;;10.32;8.23;;;;;;;11.01;73.36;97648.19;3548743;40;20049;-60
2021/04/29 03:11:23;;;;;;;10.00;7.32;;;;;;;10.97;73.42;97656.81;3558125;40;20042;-61
2021/04/29 03:13:49;;;;;;;10.98;8.52;;;;;;;10.91;73.38;97645.28;3557986;40;20046;-61
2021/04/29 03:16:16;;;;;;;9.02;8.13;;;;;;;10.87;73.67;97649.41;3558064;40;20057;-61
2021/04/29 03:18:43;;;;;;;9.55;8.05;;;;;;;10.80;73.89;97649.47;3557672;40;20040;-61
2021/04/29 03:21:11;;;;;;;10.20;7.72;;;;;;;10.82;73.63;97652.72;3558017;40;20093;-61
2021/04/29 03:23:38;;;;;;;8.70;7.70;;;;;;;10.84;73.81;97658.59;3558097;40;20027;-61
2021/04/29 03:26:05;;;;;;;9.45;7.50;;;;;;;10.84;73.42;97655.94;3554134;40;20046;-61
2021/04/29 03:28:32;;;;;;;10.05;7.75;;;;;;;10.79;73.45;97652.34;3549952;40;20049;-62
2021/04/29 03:30:59;;;;;;;10.07;8.32;;;;;;;10.80;73.53;97652.13;3550124;40;20436;-62
2021/04/29 03:33:27;;;;;;;10.32;7.68;;;;;;;10.85;73.29;97649.63;3550089;40;20049;-62
2021/04/29 03:35:54;;;;;;;8.85;7.35;;;;;;;10.92;72.96;97646.91;3549511;40;20078;-62
2021/04/29 03:38:21;;;;;;;9.73;8.23;;;;;;;10.95;73.09;97659.69;3550035;40;20082;-62
2021/04/29 03:40:47;;;;;;;8.90;7.68;;;;;;;10.98;73.06;97650.47;3549652;40;20106;-62
2021/04/29 03:43:15;;;;;;;9.40;7.80;;;;;;;10.97;73.08;97651.53;3549702;40;20054;-61
2021/04/29 03:45:42;;;;;;;9.55;7.78;;;;;;;11.06;73.04;97648.38;3549879;40;20548;-61
2021/04/29 03:48:09;;;;;;;10.30;8.07;;;;;;;11.12;72.96;97654.59;3548525;40;20050;-61
2021/04/29 03:50:37;;;;;;;9.63;7.75;;;;;;;11.11;72.85;97651.13;3549459;40;20050;-62
2021/04/29 03:53:03;;;;;;;9.75;7.00;;;;;;;11.10;72.83;97664.56;3550363;40;20395;-62
2021/04/29 03:55:30;;;;;;;8.13;6.90;;;;;;;11.01;72.83;97656.13;3540577;40;20447;-62
2021/04/29 03:57:57;;;;;;;10.60;7.38;;;;;;;11.01;73.04;97650.03;3549345;40;20054;-61
2021/04/29 04:00:25;;;;;;;9.70;7.40;;;;;;;11.03;72.88;97651.44;3540707;40;20050;-62
2021/04/29 04:02:52;;;;;;;9.93;7.50;;;;;;;11.06;72.80;97664.22;3549571;40;20050;-61
2021/04/29 04:05:19;;;;;;;9.32;7.70;;;;;;;11.05;72.74;97675.00;3540420;40;20076;-62
2021/04/29 04:07:46;;;;;;;9.40;7.68;;;;;;;11.05;72.76;97677.66;3540283;40;20061;-62
2021/04/29 04:10:12;;;;;;;9.50;8.18;;;;;;;11.01;72.85;97668.56;3550960;40;20047;-62
2021/04/29 04:12:40;;;;;;;9.45;8.40;;;;;;;10.97;73.17;97668.19;3551094;40;20348;-62
2021/04/29 04:15:07;;;;;;;12.18;9.35;;;;;;;10.98;73.31;97674.28;3549689;40;20046;-62
2021/04/29 04:17:36;;;;;;;9.70;8.38;;;;;;;10.86;73.45;97669.75;3549431;40;20057;-62
2021/04/29 04:20:19;;;;;;;10.50;9.27;;;;;;;10.91;73.88;97682.31;3549451;40;20051;-62
2021/04/29 04:22:46;;;;;;;11.50;9.82;;;;;;;10.91;73.92;97679.66;3549430;40;20050;-62
2021/04/29 04:25:13;;;;;;;14.35;10.50;;;;;;;10.90;73.81;97683.34;3549561;40;20416;-62
2021/04/29 04:27:40;;;;;;;12.13;10.13;;;;;;;10.88;73.79;97685.41;3548984;40;20093;-62
2021/04/29 04:30:08;;;;;;;11.73;9.65;;;;;;;10.90;73.67;97691.28;3549544;40;20065;-62
2021/04/29 04:32:36;;;;;;;11.13;9.98;;;;;;;10.90;73.86;97697.38;3549275;40;20060;-62
2021/04/29 04:35:03;;;;;;;13.88;10.10;;;;;;;10.91;73.63;97695.53;3549363;40;20042;-62
2021/04/29 04:37:30;;;;;;;11.13;9.40;;;;;;;10.97;73.55;97694.63;3549074;40;20056;-62
2021/04/29 04:39:57;;;;;;;11.50;9.93;;;;;;;11.03;73.34;97690.31;3549210;40;20051;-62
2021/04/29 04:42:23;;;;;;;13.27;10.77;;;;;;;11.10;72.82;97696.31;3549471;40;20046;-63
2021/04/29 04:44:50;;;;;;;11.85;9.57;;;;;;;11.16;72.86;97706.81;3548993;40;20084;-68
2021/04/29 04:47:17;;;;;;;14.95;10.82;;;;;;;11.17;72.78;97694.38;3548921;40;20387;-62
2021/04/29 04:49:45;;;;;;;12.38;10.05;;;;;;;11.18;72.52;97697.84;3549175;40;20367;-63
2021/04/29 04:52:12;;;;;;;10.90;9.65;;;;;;;11.19;72.11;97702.94;3549183;40;20039;-62
2021/04/29 04:54:38;;;;;;;14.73;10.13;;;;;;;11.24;72.41;97700.41;3549310;40;20034;-62
2021/04/29 04:57:08;;;;;;;11.20;10.05;;;;;;;11.21;72.34;97702.69;3548651;40;20050;-62
2021/04/29 04:59:35;;;;;;;13.75;10.60;;;;;;;11.20;72.30;97696.59;3548874;40;20045;-63
2021/04/29 05:02:02;;;;;;;11.98;9.93;;;;;;;11.26;72.17;97697.53;3539933;40;20061;-62
2021/04/29 05:04:30;;;;;;;17.95;10.82;;;;;;;11.28;71.90;97709.50;3548407;40;20030;-63
2021/04/29 05:06:58;;;;;;;13.82;9.55;;;;;;;11.26;71.95;97714.22;3548803;40;20053;-63
2021/04/29 05:09:26;;;;;;;19.38;13.30;;;;;;;11.28;72.29;97711.34;3539759;40;20061;-63
2021/04/29 05:11:53;;;;;;;13.10;10.52;;;;;;;11.27;72.13;97715.03;3548977;40;20053;-63
2021/04/29 05:14:19;;;;;;;12.50;10.75;;;;;;;11.26;72.38;97719.50;3540093;40;20081;-63
2021/04/29 05:16:46;;;;;;;13.52;10.15;;;;;;;11.27;72.17;97720.34;3548860;40;20041;-64
2021/04/29 05:19:13;;;;;;;13.63;10.57;;;;;;;11.36;71.74;97719.78;3548791;40;20042;-63
2021/04/29 05:21:40;;;;;;;12.75;10.10;;;;;;;11.44;71.57;97713.38;3539718;40;20069;-63
2021/04/29 05:24:09;;;;;;;12.30;10.60;;;;;;;11.47;71.43;97720.03;3550158;40;20057;-63
2021/04/29 05:26:35;;;;;;;18.05;9.88;;;;;;;11.38;71.83;97719.56;3550331;40;20041;-63
2021/04/29 05:29:04;;;;;;;11.77;9.68;;;;;;;11.34;71.45;97721.84;3548755;40;20061;-63
2021/04/29 05:31:30;;;;;;;10.65;9.23;;;;;;;11.35;71.90;97731.41;3548988;40;20054;-63
2021/04/29 05:33:57;;;;;;;10.57;8.40;;;;;;;11.32;71.80;97729.19;3548929;40;20482;-63
2021/04/29 05:36:24;;;;;;;11.63;9.00;;;;;;;11.31;71.48;97732.88;3548721;40;20046;-64
2021/04/29 05:38:51;;;;;;;9.32;8.30;;;;;;;11.21;71.86;97729.13;3548564;40;20057;-63
2021/04/29 05:41:18;;;;;;;10.65;8.88;;;;;;;11.19;71.84;97731.22;3548969;40;20073;-64
2021/04/29 05:43:45;;;;;;;11.40;8.32;;;;;;;11.08;72.10;97738.84;3549246;40;20042;-63
2021/04/29 05:46:12;;;;;;;11.93;9.77;;;;;;;11.05;71.95;97741.13;3539828;40;20516;-63
2021/04/29 05:48:39;;;;;;;13.05;9.73;;;;;;;11.03;72.27;97744.00;3548435;40;20054;-63
2021/04/29 05:51:06;;;;;;;13.45;10.82;;;;;;;11.03;72.34;97751.13;3548861;40;20061;-63
2021/04/29 05:53:33;;;;;;;15.15;10.32;;;;;;;11.04;72.25;97750.09;3539694;40;20074;-63
2021/04/29 05:55:59;;;;;;;12.68;10.10;;;;;;;11.10;72.16;97755.31;3548600;40;20054;-63
2021/04/29 05:58:27;;;;;;;11.98;10.05;;;;;;;11.05;71.69;97757.00;3548458;40;20050;-62
2021/04/29 06:00:54;;;;;;;11.43;10.25;;;;;;;11.01;71.91;97755.81;3548760;40;20082;-63
2021/04/29 06:03:22;;;;;;;14.93;10.23;;;;;;;10.97;71.96;97762.59;3539451;40;20042;-63
2021/04/29 06:05:49;;;;;;;11.05;9.93;;;;;;;11.01;72.11;97769.03;3539655;40;20490;-63
2021/04/29 06:08:16;;;;;;;15.57;11.75;;;;;;;11.06;71.88;97762.09;3548409;40;20058;-62
2021/04/29 06:10:43;;;;;;;14.10;10.35;;;;;;;11.14;71.75;97755.66;3548695;40;20394;-62
2021/04/29 06:13:10;;;;;;;13.05;10.43;;;;;;;11.35;71.76;97754.41;3549704;40;20395;-61
2021/04/29 06:15:37;;;;;;;12.70;11.13;;;;;;;11.45;71.26;97753.88;3551674;40;20026;-61
2021/04/29 06:18:05;;;;;;;13.27;11.85;;;;;;;11.49;71.15;97752.41;3551353;40;20051;-61
2021/04/29 06:20:32;;;;;;;13.63;11.63;;;;;;;11.56;71.26;97755.78;3552291;40;20034;-61
2021/04/29 06:22:58;;;;;;;13.75;11.00;;;;;;;11.76;70.74;97756.31;3552678;40;20046;-62
2021/04/29 06:25:25;;;;;;;12.05;10.77;;;;;;;11.95;70.24;97750.97;3552761;40;20055;-63
2021/04/29 06:27:52;;;;;;;11.45;10.15;;;;;;;12.03;69.91;97755.94;3543179;40;20042;-63
2021/04/29 06:30:19;;;;;;;11.57;10.38;;;;;;;11.98;69.76;97747.88;3552246;40;20070;-62
2021/04/29 06:32:47;;;;;;;14.25;11.07;;;;;;;12.07;70.01;97749.16;3542658;40;20301;-62
2021/04/29 06:35:14;;;;;;;14.07;11.77;;;;;;;12.10;69.59;97752.16;3551609;40;20053;-62
2021/04/29 06:37:41;;;;;;;16.23;10.70;;;;;;;12.04;69.58;97758.38;3541739;40;20085;-62
2021/04/29 06:40:12;;;;;;;13.95;11.15;;;;;;;11.92;69.79;97760.19;3550466;40;20054;-63
2021/04/29 06:42:38;;;;;;;12.70;9.88;;;;;;;11.90;69.69;97762.25;3550281;40;20113;-63
2021/04/29 06:45:06;;;;;;;13.30;11.38;;;;;;;11.97;69.71;97762.16;3550266;40;20114;-63
2021/04/29 06:47:33;;;;;;;12.95;11.65;;;;;;;12.01;69.50;97766.78;3549835;40;20050;-64
2021/04/29 06:50:01;;;;;;;12.57;11.25;;;;;;;12.00;69.02;97767.81;3549913;40;20090;-63
2021/04/29 06:52:28;;;;;;;11.93;10.70;;;;;;;12.02;69.04;97767.56;3549977;40;20445;-63
2021/04/29 06:54:55;;;;;;;15.73;12.68;;;;;;;12.12;69.07;97768.66;3550242;40;20281;-67
2021/04/29 06:57:21;;;;;;;12.18;10.98;;;;;;;12.13;68.83;97766.78;3549785;40;20041;-64
2021/04/29 06:59:48;;;;;;;12.40;11.10;;;;;;;12.10;69.05;97772.53;3549851;40;20059;-63
2021/04/29 07:02:15;;;;;;;12.40;10.75;;;;;;;12.04;69.10;97768.97;3549904;40;20046;-64
2021/04/29 07:04:54;;;;;;;13.32;11.00;;;;;;;12.14;69.24;97761.25;3550241;40;20038;-63
2021/04/29 07:07:22;;;;;;;12.35;11.07;;;;;;;12.20;68.66;97762.19;3549631;40;20033;-63
2021/04/29 07:09:49;;;;;;;12.85;11.55;;;;;;;12.04;69.14;97774.28;3549491;40;20038;-65
2021/04/29 07:12:16;;;;;;;12.68;11.38;;;;;;;11.88;68.59;97788.97;3550557;40;20070;-63
2021/04/29 07:14:42;;;;;;;12.82;11.50;;;;;;;11.89;69.24;97784.47;3549588;40;20053;-63
2021/04/29 07:17:09;;;;;;;13.27;11.88;;;;;;;11.88;69.19;97790.81;3540716;40;20045;-63
2021/04/29 07:19:37;;;;;;;13.15;11.77;;;;;;;11.89;69.10;97787.13;3549645;40;20054;-63
2021/04/29 07:22:04;;;;;;;14.80;13.10;;;;;;;11.90;69.43;97789.53;3549751;40;20090;-63
2021/04/29 07:24:33;;;;;;;15.57;12.18;;;;;;;12.04;68.86;97797.28;3540725;40;20403;-63
2021/04/29 07:27:01;;;;;;;15.32;13.02;;;;;;;12.25;68.62;97795.97;3549590;40;20057;-64
2021/04/29 07:29:29;;;;;;;14.73;12.90;;;;;;;12.38;67.86;97803.69;3549845;40;20046;-63
2021/04/29 07:31:55;;;;;;;15.27;12.43;;;;;;;12.48;67.61;97790.69;3549917;40;20050;-64
2021/04/29 07:34:22;;;;;;;15.55;12.13;;;;;;;12.64;67.11;97795.28;3540769;40;20089;-63
2021/04/29 07:36:49;;;;;;;15.15;13.55;;;;;;;12.85;66.23;97790.47;3549636;40;20049;-64
2021/04/29 07:39:16;;;;;;;15.00;13.45;;;;;;;12.86;65.74;97790.25;3549588;40;20038;-63
2021/04/29 07:41:44;;;;;;;15.77;13.05;;;;;;;12.98;64.78;97794.72;3549749;40;20046;-63
2021/04/29 07:44:10;;;;;;;15.55;13.48;;;;;;;13.00;64.19;97796.09;3549334;40;20057;-63
2021/04/29 07:46:37;;;;;;;15.57;12.48;;;;;;;13.06;64.36;97791.69;3549652;40;20132;-63
2021/04/29 07:49:04;;;;;;;14.60;12.32;;;;;;;13.12;64.24;97790.78;3549433;40;20549;-63
2021/04/29 07:51:31;;;;;;;14.65;13.05;;;;;;;13.13;63.54;97781.78;3540310;40;20069;-63
2021/04/29 07:53:57;;;;;;;14.23;12.65;;;;;;;13.19;63.93;97790.66;3541552;40;20053;-63
2021/04/29 07:56:24;;;;;;;14.27;12.60;;;;;;;13.31;63.01;97789.63;3551882;40;20423;-63
2021/04/29 07:58:52;;;;;;;14.82;13.40;;;;;;;13.48;62.34;97794.19;3549276;40;20046;-63
2021/04/29 08:01:19;;;;;;;13.52;12.15;;;;;;;13.55;61.94;97797.50;3549713;40;20407;-64
2021/04/29 08:03:46;;;;;;;14.63;13.13;;;;;;;13.37;61.39;97801.94;3549854;40;20061;-63
2021/04/29 08:06:13;;;;;;;16.33;13.30;;;;;;;13.18;61.19;97803.09;3549638;40;20050;-63
2021/04/29 08:08:39;;;;;;;14.40;12.90;;;;;;;13.09;60.90;97785.94;3540361;40;20424;-62
2021/04/29 08:11:07;;;;;;;15.38;13.55;;;;;;;13.21;60.54;97796.53;3549693;40;20042;-62
2021/04/29 08:13:34;;;;;;;15.95;13.48;;;;;;;13.28;60.70;97802.56;3549722;40;20050;-63
2021/04/29 08:16:01;;;;;;;15.80;12.63;;;;;;;13.41;60.81;97812.09;3549543;40;20053;-63
2021/04/29 08:18:28;;;;;;;14.60;12.73;;;;;;;13.34;59.14;97809.56;3549252;40;20082;-62
2021/04/29 08:20:55;;;;;;;13.70;12.02;;;;;;;13.28;59.31;97810.53;3549362;40;20046;-63
2021/04/29 08:23:22;;;;;;;13.40;11.00;;;;;;;13.12;59.17;97807.50;3549301;40;20042;-64
2021/04/29 08:25:50;;;;;;;12.40;11.18;;;;;;;13.21;59.11;97807.16;3549612;40;20152;-64
2021/04/29 08:28:17;;;;;;;12.18;10.82;;;;;;;13.26;58.56;97809.94;3540112;40;20293;-63
2021/04/29 08:30:43;;;;;;;11.98;10.55;;;;;;;13.30;58.60;97811.88;3540100;40;20536;-63
2021/04/29 08:33:11;;;;;;;15.20;11.23;;;;;;;13.50;58.84;97811.50;3549189;40;20331;-63
2021/04/29 08:35:38;;;;;;;12.52;10.63;;;;;;;13.47;58.10;97809.31;3539971;40;20400;-63
2021/04/29 08:38:05;;;;;;;13.13;10.93;;;;;;;13.48;58.15;97815.44;3549104;40;20046;-63
2021/04/29 08:40:32;;;;;;;12.63;9.85;;;;;;;13.61;58.38;97813.31;3548887;40;20042;-63
2021/04/29 08:42:59;;;;;;;11.00;9.90;;;;;;;13.71;58.50;97807.38;3549112;40;20803;-64
2021/04/29 08:45:26;;;;;;;12.02;10.45;;;;;;;13.81;58.75;97815.56;3549229;40;20054;-63
2021/04/29 08:47:54;;;;;;;14.90;10.68;;;;;;;13.93;57.46;97812.03;3539796;40;20058;-63
2021/04/29 08:50:25;;;;;;;11.75;9.85;;;;;;;14.07;57.31;97818.66;3549026;40;20046;-63
2021/04/29 08:52:52;;;;;;;11.45;9.68;;;;;;;14.33;56.13;97835.88;3548938;40;20058;-63
2021/04/29 08:55:20;;;;;;;11.63;10.15;;;;;;;14.41;55.62;97824.03;3548737;40;20054;-64
2021/04/29 08:57:47;;;;;;;10.80;9.70;;;;;;;14.57;55.70;97833.88;3548521;40;20046;-64
2021/04/29 09:00:16;;;;;;;12.63;10.27;;;;;;;14.78;55.51;97835.03;3548957;40;20057;-63
2021/04/29 09:02:44;;;;;;;10.50;9.38;;;;;;;14.85;55.22;97835.66;3539870;40;20089;-63
2021/04/29 09:05:13;;;;;;;11.63;10.27;;;;;;;14.71;53.91;97851.16;3539759;40;20054;-63
2021/04/29 09:07:55;;;;;;;11.00;9.33;;;;;;;14.53;52.87;97843.41;3548691;40;20395;-64
2021/04/29 09:10:24;;;;;;;16.58;11.45;;;;;;;14.45;53.84;97843.75;3539600;40;20301;-64
2021/04/29 09:12:51;;;;;;;13.10;9.27;;;;;;;14.32;53.00;97842.22;3549106;40;20054;-63
2021/04/29 09:15:23;;;;;;;9.57;8.07;;;;;;;14.11;52.62;97841.88;3548636;40;20050;-63
2021/04/29 09:18:08;;;;;;;11.63;9.45;;;;;;;14.07;51.69;97846.03;3548616;40;20046;-63
2021/04/29 09:20:36;;;;;;;10.38;8.88;;;;;;;14.10;52.14;97842.91;3548649;40;20391;-63
2021/04/29 09:23:06;;;;;;;10.77;9.65;;;;;;;14.33;51.83;97839.34;3539959;40;20050;-64
2021/04/29 09:25:34;;;;;;;9.88;8.38;;;;;;;14.46;52.07;97840.88;3539443;40;20054;-64
2021/04/29 09:28:01;;;;;;;9.63;8.63;;;;;;;14.58;52.05;97840.84;3548403;40;20086;-64
2021/04/29 09:30:29;;;;;;;11.88;8.20;;;;;;;14.82;51.40;97839.63;3548597;40;20079;-64
2021/04/29 09:33:00;;;;;;;11.02;9.27;;;;;;;14.83;49.48;97841.22;3548901;40;20384;-64
2021/04/29 09:35:29;;;;;;;11.98;9.18;;;;;;;14.99;50.36;97836.13;3548829;40;20380;-64
2021/04/29 09:37:59;;;;;;;8.65;7.85;;;;;;;15.19;50.56;97828.44;3548294;40;20050;-64
2021/04/29 09:40:29;;;;;;;8.73;7.85;;;;;;;15.23;49.08;97839.41;3540013;40;20065;-64
2021/04/29 09:42:57;;;;;;;10.73;7.82;;;;;;;15.25;49.22;97832.75;3548495;40;20053;-63
2021/04/29 09:45:26;;;;;;;9.10;7.95;;;;;;;15.34;48.84;97831.28;3548497;40;20093;-64
2021/04/29 09:47:55;;;;;;;9.85;7.78;;;;;;;14.89;47.40;97830.66;3548249;40;20156;-64
2021/04/29 09:50:23;;;;;;;10.73;8.07;;;;;;;14.76;47.66;97821.97;3548827;40;20054;-65
2021/04/29 09:53:01;;;;;;;10.50;8.65;;;;;;;14.97;48.58;97823.06;3550065;40;20054;-64
2021/04/29 09:55:29;;;;;;;9.38;7.25;;;;;;;15.07;48.88;97814.44;3549956;40;20148;-65
2021/04/29 09:58:16;;;;;;;8.85;7.55;;;;;;;15.25;48.62;97821.31;3549765;40;20043;-64
2021/04/29 10:00:43;;;;;;;9.82;8.10;;;;;;;15.31;47.62;97826.47;3549725;40;20080;-64
2021/04/29 10:03:12;;;;;;;12.00;7.78;;;;;;;15.18;47.58;97818.81;3550119;40;20054;-64
2021/04/29 10:05:40;;;;;;;9.20;8.05;;;;;;;15.19;47.59;97819.66;3549866;40;20136;-64
2021/04/29 10:08:10;;;;;;;8.90;7.55;;;;;;;15.16;46.47;97823.59;3549415;40;20084;-64
2021/04/29 10:10:40;;;;;;;10.68;7.88;;;;;;;15.52;46.72;97824.06;3549847;40;20074;-63
2021/04/29 10:13:08;;;;;;;8.85;7.53;;;;;;;15.87;46.33;97823.66;3549925;40;20065;-64
2021/04/29 10:15:38;;;;;;;8.30;7.50;;;;;;;16.11;45.09;97821.53;3549777;40;20050;-64
2021/04/29 10:18:06;;;;;;;9.25;7.45;;;;;;;16.18;44.89;97814.13;3549537;40;20094;-63
2021/04/29 10:20:35;;;;;;;9.20;7.05;;;;;;;16.15;43.93;97819.16;3549718;40;20046;-64
2021/04/29 10:23:02;;;;;;;7.45;6.75;;;;;;;16.26;43.74;97821.66;3549826;40;20050;-64
2021/04/29 10:25:30;;;;;;;7.75;6.43;;;;;;;16.19;42.93;97823.72;3549742;40;20050;-64
2021/04/29 10:28:00;;;;;;;9.00;6.55;;;;;;;15.99;42.89;97834.19;3549298;40;20046;-64
2021/04/29 10:30:32;;;;;;;7.78;6.35;;;;;;;15.99;43.10;97828.88;3549812;40;20476;-64
2021/04/29 10:32:59;;;;;;;7.20;6.50;;;;;;;15.85;43.44;97839.13;3549775;40;20061;-63
2021/04/29 10:35:28;;;;;;;8.10;5.20;;;;;;;15.61;43.60;97860.66;3549957;40;20046;-66
2021/04/29 10:37:57;;;;;;;4.15;3.65;;;;;;;14.49;44.74;97895.44;3549657;40;20046;-64
2021/04/29 10:40:34;;;;;;;5.82;3.10;;;;;;;13.77;46.17;97902.06;3552151;40;20034;-64
2021/04/29 10:43:03;;;;;;;5.00;3.50;;;;;;;13.59;47.34;97891.59;3550985;40;20054;-64
2021/04/29 10:45:31;;;;;;;5.18;3.10;;;;;;;13.64;47.61;97878.44;3549899;40;20078;-64
2021/04/29 10:48:06;;;;;;;4.35;3.30;;;;;;;14.11;47.75;97888.91;3549490;40;20061;-64
2021/04/29 10:50:45;;;;;;;3.90;3.00;;;;;;;14.08;47.30;97889.38;3549753;40;20050;-64
2021/04/29 10:53:13;;;;;;;5.25;2.70;;;;;;;14.05;46.80;97880.03;3550057;40;20050;-64
2021/04/29 10:55:43;;;;;;;4.65;3.05;;;;;;;14.14;47.18;97888.44;3549767;40;20050;-64
2021/04/29 10:58:24;;;;;;;4.13;3.13;;;;;;;13.80;46.47;97893.63;3549799;40;20057;-63
2021/04/29 11:00:59;;;;;;;4.35;3.95;;;;;;;13.76;48.47;97892.50;3549591;40;20094;-63
2021/04/29 11:03:34;;;;;;;5.18;4.68;;;;;;;13.73;49.95;97898.25;3549704;40;20038;-63
2021/04/29 11:06:09;;;;;;;3.95;3.50;;;;;;;13.64;49.94;97886.41;3550025;40;20327;-62
2021/04/29 11:08:39;;;;;;;5.57;3.95;;;;;;;13.77;50.36;97885.31;3549302;40;20082;-63
2021/04/29 11:11:18;;;;;;;6.63;3.53;;;;;;;14.05;50.34;97887.22;3540646;40;20046;-65
2021/04/29 11:13:56;;;;;;;4.20;3.47;;;;;;;14.25;49.15;97873.50;3549436;40;20050;-64
2021/04/29 11:16:23;;;;;;;3.15;2.72;;;;;;;14.26;49.03;97875.91;3549616;40;20058;-64
2021/04/29 11:18:50;;;;;;;7.13;5.40;;;;;;;14.23;49.75;97859.63;3549168;40;20058;-64
2021/04/29 11:21:25;;;;;;;10.80;7.00;;;;;;;14.00;48.15;97861.34;3549525;40;20039;-65
2021/04/29 11:23:52;;;;;;;7.50;6.65;;;;;;;14.06;49.08;97865.69;3549502;40;20355;-63
2021/04/29 11:26:20;;;;;;;9.65;7.18;;;;;;;14.09;48.53;97851.94;3548778;40;20057;-63
2021/04/29 11:28:51;;;;;;;9.05;7.75;;;;;;;14.22;48.53;97847.38;3548179;40;20054;-62
2021/04/29 11:31:19;;;;;;;10.80;7.78;;;;;;;14.29;47.76;97853.34;3549614;40;20396;-62